Time;durP1;ratioP1;P1;durP2;ratioP2;P2;SDS_P1;SDS_P2;PMS_P1;PMS_P2;Temp;Humidity;BMP_temperature;BMP_pressure;BME280_temperature;BME280_humidity;BME280_pressure;Samples;Min_cycle;Max_cycle;Signal;HPM_P1;HPM_P2
2021/06/26 00:01:26;;;;;;;27.52;7.60;;;;;;;23.78;100.00;100865.36;1686590;85;21655;-80
2021/06/26 00:03:53;;;;;;;17.73;7.90;;;;;;;23.75;100.00;100868.38;1686670;85;21043;-85
2021/06/26 00:06:20;;;;;;;25.23;7.97;;;;;;;23.70;100.00;100871.59;1686389;85;20998;-83
2021/06/26 00:08:47;;;;;;;23.57;7.20;;;;;;;23.70;100.00;100877.38;1664821;85;21987;-83
2021/06/26 00:11:13;;;;;;;23.38;7.80;;;;;;;23.70;100.00;100882.19;1686427;85;20928;-80
2021/06/26 00:13:40;;;;;;;25.97;7.42;;;;;;;23.71;100.00;100889.61;1686252;85;21041;-80
2021/06/26 00:16:07;;;;;;;18.35;7.62;;;;;;;23.71;100.00;100899.71;1685179;84;21636;-80
2021/06/26 00:18:34;;;;;;;18.65;8.03;;;;;;;23.71;100.00;100902.86;1684021;85;21023;-82
2021/06/26 00:21:01;;;;;;;22.62;8.35;;;;;;;23.69;100.00;100900.90;1683742;85;21126;-82
2021/06/26 00:23:27;;;;;;;23.15;8.53;;;;;;;23.67;100.00;100901.59;1684017;85;21065;-84
2021/06/26 00:25:54;;;;;;;18.73;8.45;;;;;;;23.64;100.00;100899.30;1683981;84;20998;-81
2021/06/26 00:28:21;;;;;;;20.48;8.35;;;;;;;23.64;100.00;100895.33;1683927;85;21468;-80
2021/06/26 00:30:47;;;;;;;25.12;9.08;;;;;;;23.63;100.00;100895.83;1683894;84;21133;-81
2021/06/26 00:33:14;;;;;;;25.85;7.85;;;;;;;23.63;100.00;100897.65;1683737;85;21125;-86
2021/06/26 00:35:41;;;;;;;22.20;8.88;;;;;;;23.64;100.00;100907.25;1683835;84;21110;-80
2021/06/26 00:38:08;;;;;;;23.83;9.20;;;;;;;23.65;100.00;100917.66;1683946;85;21029;-83
2021/06/26 00:40:35;;;;;;;25.57;8.73;;;;;;;23.66;100.00;100915.84;1683929;84;21022;-82
2021/06/26 00:43:02;;;;;;;19.25;7.90;;;;;;;23.66;100.00;100915.84;1683978;85;21623;-83
2021/06/26 00:45:30;;;;;;;23.02;8.05;;;;;;;23.66;100.00;100907.89;1683993;85;21145;-80
2021/06/26 00:47:57;;;;;;;24.63;8.45;;;;;;;23.67;100.00;100906.89;1683932;85;21538;-77
2021/06/26 00:50:26;;;;;;;29.63;9.13;;;;;;;23.68;100.00;100901.89;1684021;85;20923;-81
2021/06/26 00:52:53;;;;;;;41.18;10.20;;;;;;;23.68;100.00;100908.02;1683755;85;21584;-81
2021/06/26 00:55:19;;;;;;;26.20;8.60;;;;;;;23.68;100.00;100913.81;1683748;85;21136;-86
2021/06/26 00:57:56;;;;;;;28.02;9.53;;;;;;;23.66;100.00;100895.97;1683645;85;21921;-81
2021/06/26 01:00:23;;;;;;;22.27;8.93;;;;;;;23.63;100.00;100876.45;1683987;84;20951;-78
2021/06/26 01:02:50;;;;;;;20.75;8.25;;;;;;;23.64;100.00;100856.91;1684011;85;21014;-82
2021/06/26 01:05:16;;;;;;;24.95;8.55;;;;;;;23.62;100.00;100858.41;1683834;85;20992;-80
2021/06/26 01:07:43;;;;;;;22.75;8.70;;;;;;;23.60;100.00;100843.70;1683995;84;21529;-79
2021/06/26 01:10:11;;;;;;;29.72;8.45;;;;;;;23.61;100.00;100840.05;1684120;85;21120;-83
2021/06/26 01:12:37;;;;;;;28.40;9.28;;;;;;;23.61;100.00;100836.08;1683734;85;21007;-77
2021/06/26 01:15:07;;;;;;;21.95;8.63;;;;;;;23.62;100.00;100829.26;1684054;85;20943;-76
2021/06/26 01:17:35;;;;;;;24.43;9.10;;;;;;;23.61;100.00;100824.16;1703920;84;21002;-79
2021/06/26 01:20:03;;;;;;;25.70;8.68;;;;;;;23.60;100.00;100812.73;1704192;84;20907;-81
2021/06/26 01:22:33;;;;;;;17.02;8.00;;;;;;;23.56;100.00;100808.79;1704015;84;21133;-79
2021/06/26 01:25:00;;;;;;;22.50;9.73;;;;;;;23.53;100.00;100798.56;1703744;84;21017;-81
2021/06/26 01:27:27;;;;;;;22.75;9.90;;;;;;;23.53;100.00;100788.46;1703807;84;20959;-78
2021/06/26 01:29:54;;;;;;;24.72;9.55;;;;;;;23.48;100.00;100781.58;1704076;84;21041;-80
2021/06/26 01:32:21;;;;;;;29.20;9.38;;;;;;;23.43;100.00;100784.75;1703921;84;21065;-80
2021/06/26 01:34:47;;;;;;;24.95;8.68;;;;;;;23.41;100.00;100787.27;1703822;84;21123;-81
2021/06/26 01:37:15;;;;;;;22.40;8.28;;;;;;;23.39;100.00;100780.78;1704000;84;21524;-78
2021/06/26 01:39:42;;;;;;;25.05;9.15;;;;;;;23.37;100.00;100781.97;1704219;84;20966;-85
2021/06/26 01:42:09;;;;;;;17.85;8.53;;;;;;;23.37;100.00;100784.12;1704049;84;21079;-78
2021/06/26 01:44:35;;;;;;;29.48;9.20;;;;;;;23.37;100.00;100792.07;1704092;84;20918;-78
2021/06/26 01:47:07;;;;;;;21.05;8.23;;;;;;;23.36;100.00;100795.71;1703981;84;21064;-82
2021/06/26 01:49:35;;;;;;;;;;;;;;;23.35;100.00;100798.56;1706777;84;20970;-87
2021/06/26 01:52:03;;;;;;;22.58;7.45;;;;;;;23.34;100.00;100820.23;1704119;84;20142;-84
2021/06/26 01:54:30;;;;;;;23.07;7.12;;;;;;;23.31;100.00;100837.81;1704235;84;21096;-82
2021/06/26 01:56:57;;;;;;;22.02;7.25;;;;;;;23.35;100.00;100855.50;1704297;84;21077;-79
2021/06/26 01:59:24;;;;;;;23.62;7.12;;;;;;;23.39;100.00;100874.01;1704250;84;21167;-80
2021/06/26 02:01:50;;;;;;;25.32;6.83;;;;;;;23.36;100.00;100884.44;1704395;84;21532;-83
2021/06/26 02:04:17;;;;;;;25.50;7.72;;;;;;;23.36;100.00;100901.65;1704158;84;21017;-78
2021/06/26 02:06:44;;;;;;;17.05;5.75;;;;;;;23.41;100.00;100922.34;1704593;84;21029;-84
2021/06/26 02:09:13;;;;;;;26.68;6.55;;;;;;;23.48;99.80;100917.99;1704244;84;20966;-82
2021/06/26 02:11:39;;;;;;;23.07;6.05;;;;;;;23.57;98.17;100925.69;1704262;84;21936;-82
2021/06/26 02:14:07;;;;;;;24.43;6.37;;;;;;;23.66;96.12;100927.77;1703983;84;21548;-80
2021/06/26 02:16:34;;;;;;;21.05;6.33;;;;;;;23.71;94.52;100932.01;1696055;84;21078;-78
2021/06/26 02:19:00;;;;;;;24.65;5.30;;;;;;;23.78;93.38;100937.41;1686507;85;21019;-81
2021/06/26 02:21:27;;;;;;;19.27;5.60;;;;;;;23.81;92.56;100942.35;1686422;85;21517;-79
2021/06/26 02:23:54;;;;;;;25.48;6.50;;;;;;;23.83;92.03;100944.34;1686546;85;21127;-82
2021/06/26 02:26:21;;;;;;;26.45;5.78;;;;;;;23.84;91.90;100952.59;1686440;85;21078;-78
2021/06/26 02:28:48;;;;;;;25.80;6.40;;;;;;;23.82;92.27;100936.89;1686394;85;21558;-78
2021/06/26 02:31:15;;;;;;;26.97;6.97;;;;;;;23.81;92.85;100945.00;1686851;85;21023;-85
2021/06/26 02:33:42;;;;;;;19.90;6.37;;;;;;;23.77;93.63;100943.73;1686781;85;20967;-80
2021/06/26 02:36:09;;;;;;;25.50;6.40;;;;;;;23.72;95.48;100961.48;1686455;85;21151;-85
2021/06/26 02:38:35;;;;;;;19.82;5.85;;;;;;;23.62;97.61;100947.16;1686765;85;20896;-81
2021/06/26 02:41:02;;;;;;;20.57;6.80;;;;;;;23.50;100.00;100943.30;1686701;85;20971;-82
2021/06/26 02:43:30;;;;;;;25.10;6.92;;;;;;;23.42;100.00;100942.02;1686526;85;21019;-85
2021/06/26 02:45:57;;;;;;;23.25;7.15;;;;;;;23.36;100.00;100942.70;1688010;84;20955;-82
2021/06/26 02:48:24;;;;;;;15.13;5.90;;;;;;;23.31;100.00;100936.30;1686426;85;22013;-82
2021/06/26 02:50:51;;;;;;;22.80;6.55;;;;;;;23.29;100.00;100929.87;1686642;85;21046;-82
2021/06/26 02:53:18;;;;;;;24.90;6.78;;;;;;;23.27;100.00;100918.61;1686741;85;20948;-78
2021/06/26 02:55:44;;;;;;;22.77;6.92;;;;;;;23.28;100.00;100914.14;1686694;85;21529;-79
2021/06/26 02:58:11;;;;;;;17.73;6.90;;;;;;;23.27;100.00;100911.16;1686521;85;21062;-81
2021/06/26 03:00:37;;;;;;;26.75;7.37;;;;;;;23.27;100.00;100917.78;1686961;85;21126;-82
2021/06/26 03:03:05;;;;;;;20.92;6.75;;;;;;;23.27;100.00;100909.83;1686512;85;20987;-81
2021/06/26 03:05:31;;;;;;;18.60;7.62;;;;;;;23.28;100.00;100916.78;1686519;85;20983;-82
2021/06/26 03:07:59;;;;;;;22.22;7.25;;;;;;;23.29;100.00;100924.57;1686813;85;20987;-78
2021/06/26 03:10:25;;;;;;;23.02;7.62;;;;;;;23.33;100.00;100926.34;1686440;85;21030;-85
2021/06/26 03:12:53;;;;;;;17.30;7.03;;;;;;;23.35;100.00;100925.67;1686587;85;21006;-79
2021/06/26 03:15:20;;;;;;;19.65;6.60;;;;;;;23.36;100.00;100924.66;1686740;85;21074;-80
2021/06/26 03:17:46;;;;;;;27.52;6.72;;;;;;;23.36;100.00;100925.48;1684727;84;21030;-84
2021/06/26 03:20:14;;;;;;;26.30;7.62;;;;;;;23.37;100.00;100921.02;1684382;85;21013;-78
2021/06/26 03:22:40;;;;;;;24.87;8.05;;;;;;;23.40;100.00;100924.66;1655259;85;21580;-79
2021/06/26 03:25:09;;;;;;;30.05;7.87;;;;;;;23.43;100.00;100943.67;1684276;85;21117;-81
2021/06/26 03:27:38;;;;;;;14.40;6.70;;;;;;;23.46;100.00;100955.23;1684510;85;20899;-78
2021/06/26 03:30:06;;;;;;;28.12;8.00;;;;;;;23.47;100.00;100974.12;1684089;85;21129;-84
2021/06/26 03:32:33;;;;;;;25.32;8.33;;;;;;;23.46;100.00;100981.73;1683907;85;21019;-85
2021/06/26 03:35:00;;;;;;;21.80;8.03;;;;;;;23.51;100.00;100981.21;1684006;85;21059;-84
2021/06/26 03:37:27;;;;;;;22.73;8.15;;;;;;;23.55;100.00;100985.96;1683965;85;21451;-81
2021/06/26 03:39:53;;;;;;;27.98;8.18;;;;;;;23.60;100.00;100976.17;1683898;85;21038;-81
2021/06/26 03:42:21;;;;;;;24.20;8.30;;;;;;;23.63;100.00;100976.64;1684344;85;20954;-82
2021/06/26 03:44:48;;;;;;;21.12;8.20;;;;;;;23.66;100.00;100962.20;1684517;85;21018;-82
2021/06/26 03:47:14;;;;;;;25.57;7.10;;;;;;;23.69;100.00;100955.22;1684997;85;21010;-78
2021/06/26 03:49:42;;;;;;;15.58;7.37;;;;;;;23.76;100.00;100954.01;1685257;84;21170;-80
2021/06/26 03:52:09;;;;;;;21.17;8.28;;;;;;;23.82;100.00;100956.77;1685135;85;21098;-79
2021/06/26 03:54:35;;;;;;;24.87;8.05;;;;;;;23.88;100.00;100953.89;1684870;85;20959;-80
2021/06/26 03:57:03;;;;;;;19.73;7.85;;;;;;;23.93;100.00;100937.75;1684102;85;21137;-80
2021/06/26 03:59:29;;;;;;;25.05;8.63;;;;;;;23.99;100.00;100933.58;1683895;85;21078;-79
2021/06/26 04:01:58;;;;;;;20.40;8.23;;;;;;;24.07;100.00;100930.83;1684106;85;21104;-81
2021/06/26 04:04:24;;;;;;;25.62;8.43;;;;;;;24.14;100.00;100931.78;1684417;84;20888;-83
2021/06/26 04:06:51;;;;;;;18.62;7.78;;;;;;;24.20;98.93;100927.08;1684220;85;21011;-81
2021/06/26 04:09:18;;;;;;;20.92;7.60;;;;;;;24.27;97.44;100924.02;1684293;85;21003;-84
2021/06/26 04:11:45;;;;;;;24.15;8.98;;;;;;;24.35;97.01;100923.91;1684181;85;20971;-76
2021/06/26 04:14:11;;;;;;;22.58;8.13;;;;;;;24.41;96.14;100924.49;1684162;85;21077;-77
2021/06/26 04:16:39;;;;;;;22.05;7.85;;;;;;;24.47;95.02;100929.09;1683676;85;21660;-80
2021/06/26 04:19:05;;;;;;;21.37;7.55;;;;;;;24.52;93.89;100927.19;1684124;85;20919;-75
2021/06/26 04:21:33;;;;;;;22.90;8.43;;;;;;;24.57;93.49;100926.95;1683789;85;21027;-81
2021/06/26 04:23:59;;;;;;;20.05;7.72;;;;;;;24.64;91.84;100914.59;1684080;85;21021;-86
2021/06/26 04:26:28;;;;;;;22.35;8.50;;;;;;;24.70;89.75;100904.55;1684199;85;21007;-84
2021/06/26 04:28:54;;;;;;;20.45;8.05;;;;;;;24.73;90.01;100891.41;1684327;85;20868;-80
2021/06/26 04:31:21;;;;;;;24.52;8.30;;;;;;;24.79;90.42;100872.59;1684107;85;21577;-80
2021/06/26 04:33:48;;;;;;;23.45;8.48;;;;;;;24.81;90.25;100868.73;1684121;85;21102;-85
2021/06/26 04:36:15;;;;;;;26.68;8.10;;;;;;;24.87;88.99;100859.22;1684183;85;20983;-78
2021/06/26 04:38:42;;;;;;;21.15;7.65;;;;;;;24.91;87.69;100848.05;1684012;85;21808;-78
2021/06/26 04:41:09;;;;;;;27.58;9.28;;;;;;;24.96;87.54;100842.16;1684263;84;21046;-79
2021/06/26 04:43:36;;;;;;;28.47;9.48;;;;;;;25.00;87.09;100826.99;1684722;85;21090;-83
2021/06/26 04:46:03;;;;;;;20.90;8.38;;;;;;;25.06;86.68;100829.38;1685148;85;20988;-85
2021/06/26 04:48:29;;;;;;;23.30;9.03;;;;;;;25.10;85.60;100825.34;1684286;85;21592;-81
2021/06/26 04:50:56;;;;;;;19.05;8.25;;;;;;;25.13;84.96;100825.78;1684028;85;21146;-78
2021/06/26 04:53:23;;;;;;;18.20;8.38;;;;;;;25.17;84.81;100820.41;1684043;85;21035;-85
2021/06/26 04:55:53;;;;;;;21.57;8.20;;;;;;;25.21;83.99;100810.20;1683987;85;21541;-88
2021/06/26 04:58:22;;;;;;;16.67;7.97;;;;;;;25.27;84.43;100800.95;1683817;85;20931;-85
2021/06/26 05:00:50;;;;;;;23.02;8.63;;;;;;;25.34;84.19;100786.89;1684203;85;21070;-83
2021/06/26 05:03:18;;;;;;;24.05;9.60;;;;;;;25.42;84.32;100782.27;1684170;85;21133;-84
2021/06/26 05:05:46;;;;;;;25.02;8.60;;;;;;;25.51;83.74;100782.45;1683904;84;20909;-84
2021/06/26 05:08:13;;;;;;;19.35;7.67;;;;;;;25.60;81.68;100770.65;1684096;85;21093;-79
2021/06/26 05:10:40;;;;;;;24.67;8.23;;;;;;;25.73;79.30;100771.23;1684002;85;21513;-83
2021/06/26 05:13:06;;;;;;;21.52;8.53;;;;;;;25.83;76.97;100758.40;1684090;85;20964;-78
2021/06/26 05:15:33;;;;;;;24.45;7.67;;;;;;;25.96;76.38;100757.62;1683916;85;21125;-79
2021/06/26 05:17:59;;;;;;;26.42;11.57;;;;;;;26.07;76.49;100755.74;1696634;84;20961;-85
2021/06/26 05:20:26;;;;;;;17.55;6.53;;;;;;;26.17;73.47;100759.67;1704024;84;20930;-87
2021/06/26 05:22:53;;;;;;;16.80;6.20;;;;;;;26.30;71.41;100762.88;1704225;84;20986;-87
2021/06/26 05:25:21;;;;;;;23.07;6.25;;;;;;;26.40;68.75;100759.33;1703926;84;21022;-84
2021/06/26 05:27:48;;;;;;;21.45;6.92;;;;;;;26.46;69.36;100757.19;1704143;84;21127;-81
2021/06/26 05:30:15;;;;;;;15.60;5.72;;;;;;;26.54;69.58;100754.35;1703937;84;20934;-87
2021/06/26 05:32:42;;;;;;;23.47;6.53;;;;;;;26.60;69.13;100760.20;1704047;84;20955;-86
2021/06/26 05:35:09;;;;;;;14.18;6.40;;;;;;;26.64;68.70;100756.62;1704064;84;21065;-85
2021/06/26 05:37:38;;;;;;;13.43;6.70;;;;;;;26.67;67.45;100762.36;1704173;84;20950;-81
2021/06/26 05:40:07;;;;;;;15.18;5.90;;;;;;;26.68;67.05;100757.32;1702558;84;21204;-86
2021/06/26 05:42:33;;;;;;;18.65;5.67;;;;;;;26.70;67.76;100757.13;1703827;84;21045;-77
2021/06/26 05:45:02;;;;;;;19.02;6.53;;;;;;;26.71;68.23;100756.91;1704075;84;20962;-86
2021/06/26 05:47:29;;;;;;;24.55;6.33;;;;;;;26.73;69.14;100755.39;1703989;83;22380;-78
2021/06/26 05:49:55;;;;;;;17.92;6.03;;;;;;;26.75;69.47;100757.33;1704240;84;20938;-85
2021/06/26 05:52:22;;;;;;;19.23;5.90;;;;;;;26.77;69.16;100758.75;1703963;84;21117;-83
2021/06/26 05:54:50;;;;;;;17.75;6.85;;;;;;;26.83;69.66;100765.16;1704116;84;20979;-80
2021/06/26 05:57:17;;;;;;;25.20;7.47;;;;;;;26.90;69.39;100765.96;1703724;84;20966;-82
2021/06/26 05:59:43;;;;;;;12.13;6.50;;;;;;;26.98;68.89;100767.61;1704462;84;21114;-77
2021/06/26 06:02:13;;;;;;;19.80;5.92;;;;;;;27.03;67.70;100767.30;1704387;84;21584;-81
2021/06/26 06:04:40;;;;;;;15.98;5.75;;;;;;;27.09;67.21;100768.34;1703829;84;21135;-84
2021/06/26 06:07:09;;;;;;;16.15;5.37;;;;;;;27.12;65.59;100771.92;1704256;84;20938;-78
2021/06/26 06:09:35;;;;;;;14.58;5.10;;;;;;;27.14;64.88;100765.36;1704417;84;20982;-77
2021/06/26 06:12:04;;;;;;;17.07;5.78;;;;;;;27.18;63.23;100762.59;1704064;84;21534;-85
2021/06/26 06:14:30;;;;;;;9.93;4.75;;;;;;;27.24;62.30;100767.60;1674832;84;21535;-82
2021/06/26 06:16:58;;;;;;;24.12;5.08;;;;;;;27.31;62.56;100775.08;1703055;84;21165;-84
2021/06/26 06:19:24;;;;;;;18.45;5.65;;;;;;;27.36;60.99;100772.59;1684012;85;21526;-84
2021/06/26 06:21:51;;;;;;;22.45;4.97;;;;;;;27.43;60.98;100773.44;1684273;85;20967;-83
2021/06/26 06:24:18;;;;;;;41.23;7.50;;;;;;;27.52;60.81;100774.03;1683999;85;21070;-88
2021/06/26 06:26:44;;;;;;;17.85;5.05;;;;;;;27.62;61.73;100780.58;1683862;85;21066;-81
2021/06/26 06:29:11;;;;;;;12.05;4.45;;;;;;;27.70;61.11;100780.84;1683986;85;21120;-82
2021/06/26 06:31:38;;;;;;;19.23;4.87;;;;;;;27.78;59.91;100786.78;1684102;85;21564;-79
2021/06/26 06:34:05;;;;;;;14.30;5.00;;;;;;;27.90;58.43;100792.27;1684210;85;21103;-79
2021/06/26 06:36:34;;;;;;;17.02;4.35;;;;;;;27.98;56.06;100800.57;1684297;85;21003;-84
2021/06/26 06:39:02;;;;;;;15.13;5.33;;;;;;;28.03;57.61;100797.56;1683975;85;20967;-80
2021/06/26 06:41:30;;;;;;;14.85;4.17;;;;;;;28.11;54.67;100794.67;1683771;85;21159;-81
2021/06/26 06:43:57;;;;;;;21.30;5.15;;;;;;;28.22;54.17;100790.53;1684197;85;20935;-79
2021/06/26 06:46:24;;;;;;;13.43;5.22;;;;;;;28.27;54.86;100790.18;1683863;85;20967;-81
2021/06/26 06:48:51;;;;;;;16.50;6.97;;;;;;;28.32;55.15;100786.37;1684020;85;21007;-86
2021/06/26 06:51:19;;;;;;;19.55;6.90;;;;;;;28.33;60.71;100788.02;1684115;85;21006;-83
2021/06/26 06:53:45;;;;;;;20.12;6.62;;;;;;;28.28;61.80;100793.16;1684421;85;21086;-87
2021/06/26 06:56:12;;;;;;;16.10;6.45;;;;;;;28.13;62.06;100809.15;1684028;85;20959;-83
2021/06/26 06:58:40;;;;;;;15.10;5.95;;;;;;;28.00;61.37;100805.99;1684216;85;21046;-85
2021/06/26 07:01:07;;;;;;;18.57;6.05;;;;;;;27.89;60.66;100793.30;1684243;84;20971;-84
2021/06/26 07:03:34;;;;;;;16.45;5.95;;;;;;;27.78;61.38;100800.63;1684166;85;21067;-82
2021/06/26 07:06:00;;;;;;;16.52;6.62;;;;;;;27.74;61.70;100794.89;1684144;85;21129;-79
2021/06/26 07:08:27;;;;;;;12.65;6.28;;;;;;;27.75;62.64;100798.39;1683655;85;21672;-79
2021/06/26 07:10:55;;;;;;;13.00;5.65;;;;;;;27.80;62.07;100802.56;1684117;85;20963;-84
2021/06/26 07:13:24;;;;;;;24.75;7.37;;;;;;;27.84;60.92;100793.13;1684116;85;20908;-80
2021/06/26 07:15:52;;;;;;;16.80;5.40;;;;;;;27.88;61.75;100796.19;1684225;85;21011;-80
2021/06/26 07:18:19;;;;;;;16.12;6.25;;;;;;;27.89;60.41;100788.50;1685035;84;21127;-83
2021/06/26 07:20:46;;;;;;;13.08;6.00;;;;;;;27.87;61.45;100780.70;1686711;85;20986;-77
2021/06/26 07:23:14;;;;;;;15.60;5.95;;;;;;;27.90;61.65;100776.27;1686635;85;21498;-83
2021/06/26 07:25:41;;;;;;;14.65;5.83;;;;;;;27.89;61.84;100771.95;1686644;85;20975;-82
2021/06/26 07:28:07;;;;;;;22.75;6.62;;;;;;;27.94;63.60;100775.34;1686512;85;21081;-84
2021/06/26 07:30:35;;;;;;;13.00;5.40;;;;;;;27.97;64.88;100766.91;1686778;85;21168;-81
2021/06/26 07:33:01;;;;;;;15.08;5.55;;;;;;;28.00;61.86;100759.81;1686281;85;21597;-84
2021/06/26 07:35:28;;;;;;;12.35;4.97;;;;;;;28.06;58.33;100762.48;1686552;85;20931;-89
2021/06/26 07:37:54;;;;;;;17.95;5.92;;;;;;;28.10;59.84;100764.22;1686557;85;21573;-86
2021/06/26 07:40:25;;;;;;;13.83;5.45;;;;;;;28.20;61.22;100767.25;1686892;85;21079;-80
2021/06/26 07:42:51;;;;;;;18.62;5.37;;;;;;;28.31;60.47;100775.39;1686531;85;21185;-81
2021/06/26 07:45:18;;;;;;;15.03;4.95;;;;;;;28.38;59.61;100767.34;1686637;85;20903;-88
2021/06/26 07:47:44;;;;;;;23.02;6.17;;;;;;;28.40;60.10;100767.14;1686425;85;20947;-81
2021/06/26 07:50:11;;;;;;;21.65;5.70;;;;;;;28.45;60.27;100767.30;1686421;85;21042;-80
2021/06/26 07:52:38;;;;;;;18.20;5.95;;;;;;;28.53;61.27;100781.72;1686694;85;20972;-84
2021/06/26 07:55:06;;;;;;;19.67;6.37;;;;;;;28.63;61.55;100770.88;1686431;85;21181;-83
2021/06/26 07:57:34;;;;;;;17.42;5.72;;;;;;;28.68;61.62;100778.28;1686399;85;21025;-85
2021/06/26 08:00:06;;;;;;;14.75;6.67;;;;;;;28.65;61.51;100770.19;1686172;85;20980;-87
2021/06/26 08:02:35;;;;;;;;;;;;;;;28.62;61.97;100772.44;1688931;85;21015;-84
2021/06/26 08:05:02;;;;;;;16.62;6.85;;;;;;;28.62;62.04;100772.44;1686909;85;20139;-81
2021/06/26 08:07:30;;;;;;;20.02;6.45;;;;;;;28.67;63.24;100769.44;1686552;85;21169;-83
2021/06/26 08:09:56;;;;;;;17.42;7.97;;;;;;;28.73;62.22;100766.41;1686589;85;21007;-77
2021/06/26 08:12:23;;;;;;;19.25;5.65;;;;;;;28.77;62.38;100766.29;1686602;85;21022;-79
2021/06/26 08:14:51;;;;;;;17.23;5.58;;;;;;;28.79;60.44;100767.70;1686372;85;20947;-84
2021/06/26 08:17:21;;;;;;;15.93;5.30;;;;;;;28.83;59.65;100766.75;1686425;85;21074;-84
2021/06/26 08:19:49;;;;;;;17.60;5.80;;;;;;;28.91;60.52;100771.02;1684012;84;21082;-81
2021/06/26 08:22:17;;;;;;;13.28;5.72;;;;;;;28.99;61.84;100765.39;1683934;85;20908;-80
2021/06/26 08:24:46;;;;;;;13.43;5.25;;;;;;;29.09;60.25;100761.19;1684143;85;20975;-87
2021/06/26 08:27:14;;;;;;;18.00;5.37;;;;;;;29.18;60.49;100760.38;1684059;85;21019;-84
2021/06/26 08:29:41;;;;;;;22.40;5.40;;;;;;;29.26;60.51;100762.27;1683994;85;21006;-79
2021/06/26 08:32:08;;;;;;;15.08;5.50;;;;;;;29.32;59.54;100762.72;1684369;84;21119;-85
2021/06/26 08:34:35;;;;;;;14.28;5.08;;;;;;;29.41;57.84;100760.60;1684389;85;21019;-88
2021/06/26 08:37:03;;;;;;;19.17;5.50;;;;;;;29.52;57.47;100761.19;1684371;85;21000;-81
2021/06/26 08:39:30;;;;;;;12.90;4.72;;;;;;;29.60;57.85;100756.89;1684009;85;21098;-83
2021/06/26 08:41:58;;;;;;;14.33;4.28;;;;;;;29.69;56.21;100753.39;1683731;85;21006;-91
2021/06/26 08:44:25;;;;;;;19.48;4.90;;;;;;;29.78;56.39;100758.22;1684008;85;21123;-88
2021/06/26 08:46:52;;;;;;;17.10;4.85;;;;;;;29.88;55.30;100761.22;1683874;85;20904;-84
2021/06/26 08:49:19;;;;;;;15.90;4.62;;;;;;;29.95;55.90;100757.63;1684023;85;21537;-79
2021/06/26 08:51:48;;;;;;;12.43;4.00;;;;;;;30.02;53.77;100762.39;1684118;85;21022;-83
2021/06/26 08:54:16;;;;;;;12.10;4.22;;;;;;;30.05;53.73;100758.74;1684228;85;20991;-85
2021/06/26 08:56:46;;;;;;;14.47;4.37;;;;;;;30.05;51.53;100758.74;1655368;85;20946;-81
2021/06/26 08:59:13;;;;;;;11.30;4.50;;;;;;;30.06;52.29;100757.68;1683938;85;21008;-86
2021/06/26 09:01:41;;;;;;;11.88;4.30;;;;;;;30.12;54.44;100766.69;1684113;84;21610;-86
2021/06/26 09:04:11;;;;;;;13.15;4.70;;;;;;;30.10;55.35;100769.57;1683939;84;21086;-81
2021/06/26 09:06:57;;;;;;;17.45;5.37;;;;;;;30.08;57.17;100771.67;1684178;85;21458;-87
2021/06/26 09:09:37;;;;;;;18.27;5.25;;;;;;;30.06;58.29;100768.93;1650673;85;21171;-82
2021/06/26 09:12:08;;;;;;;14.68;4.80;;;;;;;30.10;58.83;100770.09;1683715;85;21008;-86
2021/06/26 09:14:35;;;;;;;13.15;4.65;;;;;;;30.10;56.99;100773.59;1683853;85;21074;-81
2021/06/26 09:17:03;;;;;;;13.30;5.97;;;;;;;30.07;57.63;100773.22;1683984;85;21003;-80
2021/06/26 09:19:33;;;;;;;12.55;4.70;;;;;;;30.05;58.27;100774.80;1683808;85;21010;-87
2021/06/26 09:22:12;;;;;;;17.00;5.47;;;;;;;30.13;58.73;100769.64;1683977;85;21814;-82
2021/06/26 09:24:49;;;;;;;21.30;5.45;;;;;;;30.18;58.32;100772.47;1683896;85;20968;-83
2021/06/26 09:27:19;;;;;;;16.97;4.95;;;;;;;30.22;58.21;100771.77;1684171;85;20912;-84
2021/06/26 09:29:53;;;;;;;12.20;5.12;;;;;;;30.24;58.10;100772.38;1684043;85;20931;-85
2021/06/26 09:32:29;;;;;;;18.75;5.33;;;;;;;30.26;58.43;100767.61;1683858;85;20984;-81
2021/06/26 09:34:56;;;;;;;17.60;5.30;;;;;;;30.32;59.00;100766.69;1683799;85;21977;-85
2021/06/26 09:37:26;;;;;;;13.58;5.58;;;;;;;30.34;57.86;100761.12;1683977;85;21035;-83
2021/06/26 09:39:55;;;;;;;16.32;6.35;;;;;;;30.31;58.17;100761.03;1684054;85;21529;-86
2021/06/26 09:42:30;;;;;;;13.50;5.00;;;;;;;30.37;58.44;100752.12;1684154;85;20943;-81
2021/06/26 09:45:04;;;;;;;23.87;4.80;;;;;;;30.49;58.58;100757.53;1684168;85;21509;-83
2021/06/26 09:47:43;;;;;;;13.88;4.95;;;;;;;30.66;58.08;100759.02;1684177;84;21247;-86
2021/06/26 09:50:26;;;;;;;13.65;5.30;;;;;;;30.73;57.43;100751.70;1684291;85;21000;-80
2021/06/26 09:53:05;;;;;;;11.95;4.97;;;;;;;30.85;57.19;100759.23;1684583;85;21003;-84
2021/06/26 09:55:46;;;;;;;16.17;5.00;;;;;;;30.95;55.63;100754.15;1683946;84;21530;-88
2021/06/26 09:58:12;;;;;;;15.58;4.87;;;;;;;31.04;56.02;100761.31;1683053;85;21059;-82
2021/06/26 10:00:41;;;;;;;7.90;3.85;;;;;;;31.06;53.71;100760.02;1683983;85;39191;-82
2021/06/26 10:03:18;;;;;;;16.57;5.87;;;;;;;31.13;53.82;100755.37;1683967;85;21007;-80
2021/06/26 10:05:47;;;;;;;16.17;5.80;;;;;;;31.42;52.68;100762.47;1684181;85;20975;-85
2021/06/26 10:08:15;;;;;;;14.63;5.20;;;;;;;31.65;52.24;100756.80;1683990;85;21514;-81
2021/06/26 10:10:44;;;;;;;15.85;4.70;;;;;;;31.76;52.13;100755.42;1683964;85;21150;-81
2021/06/26 10:13:13;;;;;;;15.88;4.67;;;;;;;31.88;52.39;100761.56;1677439;85;21291;-85
2021/06/26 10:15:41;;;;;;;11.60;4.72;;;;;;;31.96;53.05;100763.06;1683907;85;21007;-80
2021/06/26 10:18:10;;;;;;;12.35;4.83;;;;;;;31.98;52.26;100759.08;1683353;85;21089;-86
2021/06/26 10:20:37;;;;;;;14.38;4.83;;;;;;;31.99;52.45;100766.09;1681318;85;21478;-83
2021/06/26 10:23:04;;;;;;;20.12;5.55;;;;;;;32.00;52.70;100759.64;1674689;85;21086;-81
2021/06/26 10:25:35;;;;;;;12.23;4.45;;;;;;;32.06;53.14;100758.45;1681462;85;21078;-87
2021/06/26 10:28:05;;;;;;;19.65;3.87;;;;;;;32.12;52.24;100764.20;1680821;85;20935;-80
2021/06/26 10:30:32;;;;;;;13.87;5.37;;;;;;;32.09;51.54;100769.53;1681754;85;21079;-82
2021/06/26 10:33:01;;;;;;;13.45;4.58;;;;;;;31.97;51.88;100767.39;1681677;84;20987;-83
2021/06/26 10:35:32;;;;;;;11.75;4.08;;;;;;;31.86;51.46;100762.86;1681334;85;20911;-82
2021/06/26 10:38:03;;;;;;;14.70;4.53;;;;;;;31.80;52.69;100766.50;1675043;84;21781;-88
2021/06/26 10:40:50;;;;;;;13.15;3.92;;;;;;;31.83;52.46;100757.45;1674096;85;21562;-82
2021/06/26 10:43:31;;;;;;;12.88;3.77;;;;;;;31.93;50.70;100755.48;1674655;85;21138;-83
2021/06/26 10:46:12;;;;;;;18.27;5.45;;;;;;;32.07;50.58;100749.35;1674724;85;21047;-84
2021/06/26 10:48:41;;;;;;;13.20;4.78;;;;;;;32.16;51.02;100746.04;1681384;85;21123;-84
2021/06/26 10:51:10;;;;;;;14.85;4.47;;;;;;;32.27;50.29;100751.05;1674917;85;21136;-81
2021/06/26 10:53:39;;;;;;;15.72;5.00;;;;;;;32.34;47.80;100753.88;1676133;85;20952;-82
2021/06/26 10:56:13;;;;;;;13.05;4.30;;;;;;;32.28;48.80;100750.00;1682850;85;20924;-87
2021/06/26 10:58:46;;;;;;;8.53;3.87;;;;;;;32.28;48.42;100744.11;1683176;85;20967;-75
2021/06/26 11:01:23;;;;;;;14.23;4.37;;;;;;;32.31;45.73;100754.89;1675129;84;20999;-87
2021/06/26 11:04:09;;;;;;;17.80;4.45;;;;;;;32.34;44.54;100745.82;1674818;85;21433;-79
2021/06/26 11:06:39;;;;;;;10.03;3.90;;;;;;;32.42;44.72;100745.41;1651159;85;20916;-82
2021/06/26 11:09:12;;;;;;;11.43;3.67;;;;;;;32.56;41.19;100741.07;1681242;85;21023;-84
2021/06/26 11:11:44;;;;;;;10.03;3.60;;;;;;;32.63;41.14;100743.11;1674839;84;20912;-80
2021/06/26 11:14:28;;;;;;;13.70;3.55;;;;;;;32.62;40.83;100746.31;1681690;85;21070;-84
2021/06/26 11:16:58;;;;;;;17.20;3.62;;;;;;;32.66;40.94;100742.62;1674860;85;20873;-77
2021/06/26 11:19:31;;;;;;;13.78;3.55;;;;;;;32.72;40.63;100737.61;1682757;84;21022;-85